sensor_id;sensor_type;location;lat;lon;timestamp;pressure;altitude;pressure_sealevel;temperature;humidity
48555;BME280;34336;48.270;16.716;2023-05-14T00:00:29;109325.25;;;18.16;100.00
48555;BME280;34336;48.270;16.716;2023-05-14T00:02:56;109325.25;;;18.16;100.00
48555;BME280;34336;48.270;16.716;2023-05-14T00:05:23;109325.25;;;18.16;100.00
48555;BME280;34336;48.270;16.716;2023-05-14T00:07:49;109325.25;;;18.16;100.00
48555;BME280;34336;48.270;16.716;2023-05-14T00:10:16;109325.25;;;18.16;100.00
48555;BME280;34336;48.270;16.716;2023-05-14T00:12:44;109325.25;;;18.16;100.00
48555;BME280;34336;48.270;16.716;2023-05-14T00:15:11;109325.25;;;18.16;100.00
48555;BME280;34336;48.270;16.716;2023-05-14T00:17:37;109325.25;;;18.16;100.00
48555;BME280;34336;48.270;16.716;2023-05-14T00:20:04;109325.25;;;18.16;100.00
48555;BME280;34336;48.270;16.716;2023-05-14T00:22:32;109325.25;;;18.16;100.00
48555;BME280;34336;48.270;16.716;2023-05-14T00:24:59;109325.25;;;18.16;100.00
48555;BME280;34336;48.270;16.716;2023-05-14T00:27:26;109325.25;;;18.16;100.00
48555;BME280;34336;48.270;16.716;2023-05-14T00:29:52;109325.25;;;18.16;100.00
48555;BME280;34336;48.270;16.716;2023-05-14T00:32:19;109325.25;;;18.16;100.00
48555;BME280;34336;48.270;16.716;2023-05-14T00:34:46;109325.25;;;18.16;100.00
48555;BME280;34336;48.270;16.716;2023-05-14T00:37:12;109325.25;;;18.16;100.00
48555;BME280;34336;48.270;16.716;2023-05-14T00:39:39;109325.25;;;18.16;100.00
48555;BME280;34336;48.270;16.716;2023-05-14T00:42:05;109325.25;;;18.16;100.00
48555;BME280;34336;48.270;16.716;2023-05-14T00:44:32;109325.25;;;18.16;100.00
48555;BME280;34336;48.270;16.716;2023-05-14T00:46:59;109325.25;;;18.16;100.00
48555;BME280;34336;48.270;16.716;2023-05-14T00:49:26;109325.25;;;18.16;100.00
48555;BME280;34336;48.270;16.716;2023-05-14T00:51:53;109325.25;;;18.16;100.00
48555;BME280;34336;48.270;16.716;2023-05-14T00:54:21;109325.25;;;18.16;100.00
48555;BME280;34336;48.270;16.716;2023-05-14T00:56:48;109325.25;;;18.16;100.00
48555;BME280;34336;48.270;16.716;2023-05-14T00:59:15;109325.25;;;18.16;100.00
48555;BME280;34336;48.270;16.716;2023-05-14T01:01:42;109325.25;;;18.16;100.00
48555;BME280;34336;48.270;16.716;2023-05-14T01:04:09;109325.25;;;18.16;100.00
48555;BME280;34336;48.270;16.716;2023-05-14T01:06:45;109325.25;;;18.16;100.00
48555;BME280;34336;48.270;16.716;2023-05-14T01:09:25;109325.25;;;18.16;100.00
48555;BME280;34336;48.270;16.716;2023-05-14T01:12:07;109325.25;;;18.16;100.00
48555;BME280;34336;48.270;16.716;2023-05-14T01:15:19;109325.25;;;18.16;100.00
48555;BME280;34336;48.270;16.716;2023-05-14T01:17:27;109325.25;;;18.16;100.00
48555;BME280;34336;48.270;16.716;2023-05-14T01:19:54;109325.25;;;18.16;100.00
48555;BME280;34336;48.270;16.716;2023-05-14T01:22:22;109325.25;;;18.16;100.00
48555;BME280;34336;48.270;16.716;2023-05-14T01:24:48;109325.25;;;18.16;100.00
48555;BME280;34336;48.270;16.716;2023-05-14T01:27:24;109325.25;;;18.16;100.00
48555;BME280;34336;48.270;16.716;2023-05-14T01:30:00;109325.25;;;18.16;100.00
48555;BME280;34336;48.270;16.716;2023-05-14T01:32:29;109325.25;;;18.16;100.00
48555;BME280;34336;48.270;16.716;2023-05-14T01:34:57;109325.25;;;18.16;100.00
48555;BME280;34336;48.270;16.716;2023-05-14T01:37:26;109325.25;;;18.16;100.00
48555;BME280;34336;48.270;16.716;2023-05-14T01:39:53;109325.25;;;18.16;100.00
48555;BME280;34336;48.270;16.716;2023-05-14T01:42:21;109325.25;;;18.16;100.00
48555;BME280;34336;48.270;16.716;2023-05-14T01:44:48;109325.25;;;18.16;100.00
48555;BME280;34336;48.270;16.716;2023-05-14T01:47:15;109325.25;;;18.16;100.00
48555;BME280;34336;48.270;16.716;2023-05-14T01:49:41;109325.25;;;18.16;100.00
48555;BME280;34336;48.270;16.716;2023-05-14T01:52:08;109325.25;;;18.16;100.00
48555;BME280;34336;48.270;16.716;2023-05-14T01:54:35;109325.25;;;18.16;100.00
48555;BME280;34336;48.270;16.716;2023-05-14T01:57:01;109325.25;;;18.16;100.00
48555;BME280;34336;48.270;16.716;2023-05-14T01:59:28;109325.25;;;18.16;100.00
48555;BME280;34336;48.270;16.716;2023-05-14T02:01:55;109325.25;;;18.16;100.00
48555;BME280;34336;48.270;16.716;2023-05-14T02:04:22;109325.25;;;18.16;100.00
48555;BME280;34336;48.270;16.716;2023-05-14T02:06:48;109325.25;;;18.16;100.00
48555;BME280;34336;48.270;16.716;2023-05-14T02:09:15;109325.25;;;18.16;100.00
48555;BME280;34336;48.270;16.716;2023-05-14T02:11:42;109325.25;;;18.16;100.00
48555;BME280;34336;48.270;16.716;2023-05-14T02:14:08;109325.25;;;18.16;100.00
48555;BME280;34336;48.270;16.716;2023-05-14T02:16:35;109325.25;;;18.16;100.00
48555;BME280;34336;48.270;16.716;2023-05-14T02:19:01;109325.25;;;18.16;100.00
48555;BME280;34336;48.270;16.716;2023-05-14T02:21:28;109325.25;;;18.16;100.00
48555;BME280;34336;48.270;16.716;2023-05-14T02:23:55;109325.25;;;18.16;100.00
48555;BME280;34336;48.270;16.716;2023-05-14T02:26:21;109325.25;;;18.16;100.00
48555;BME280;34336;48.270;16.716;2023-05-14T02:28:48;109325.25;;;18.16;100.00
48555;BME280;34336;48.270;16.716;2023-05-14T02:31:15;109325.25;;;18.16;100.00
48555;BME280;34336;48.270;16.716;2023-05-14T02:33:44;109325.25;;;18.16;100.00
48555;BME280;34336;48.270;16.716;2023-05-14T02:36:11;109325.25;;;18.16;100.00
48555;BME280;34336;48.270;16.716;2023-05-14T02:38:37;109325.25;;;18.16;100.00
48555;BME280;34336;48.270;16.716;2023-05-14T02:41:04;109325.25;;;18.16;100.00
48555;BME280;34336;48.270;16.716;2023-05-14T02:43:31;109325.25;;;18.16;100.00
48555;BME280;34336;48.270;16.716;2023-05-14T02:45:57;109325.25;;;18.16;100.00
48555;BME280;34336;48.270;16.716;2023-05-14T02:48:24;109325.25;;;18.16;100.00
48555;BME280;34336;48.270;16.716;2023-05-14T02:50:51;109325.25;;;18.16;100.00
48555;BME280;34336;48.270;16.716;2023-05-14T02:53:18;109325.25;;;18.16;100.00
48555;BME280;34336;48.270;16.716;2023-05-14T02:55:44;109325.25;;;18.16;100.00
48555;BME280;34336;48.270;16.716;2023-05-14T02:58:11;109325.25;;;18.16;99.53
48555;BME280;34336;48.270;16.716;2023-05-14T03:00:37;109325.25;;;18.16;99.10
48555;BME280;34336;48.270;16.716;2023-05-14T03:03:05;109325.25;;;18.16;98.64
48555;BME280;34336;48.270;16.716;2023-05-14T03:05:32;109325.25;;;18.16;98.87
48555;BME280;34336;48.270;16.716;2023-05-14T03:07:59;109325.25;;;18.16;98.61
48555;BME280;34336;48.270;16.716;2023-05-14T03:10:26;109325.25;;;18.16;98.38
48555;BME280;34336;48.270;16.716;2023-05-14T03:12:52;109325.25;;;18.16;97.84
48555;BME280;34336;48.270;16.716;2023-05-14T03:15:19;109325.25;;;18.16;97.73
48555;BME280;34336;48.270;16.716;2023-05-14T03:17:46;109325.25;;;18.16;97.37
48555;BME280;34336;48.270;16.716;2023-05-14T03:20:12;109325.25;;;18.16;96.95
48555;BME280;34336;48.270;16.716;2023-05-14T03:22:39;109325.25;;;18.16;96.23
48555;BME280;34336;48.270;16.716;2023-05-14T03:25:06;109325.25;;;18.16;94.33
48555;BME280;34336;48.270;16.716;2023-05-14T03:27:34;109325.25;;;18.16;93.34
48555;BME280;34336;48.270;16.716;2023-05-14T03:30:00;109325.25;;;18.16;92.22
48555;BME280;34336;48.270;16.716;2023-05-14T03:32:27;109325.25;;;18.16;91.11
48555;BME280;34336;48.270;16.716;2023-05-14T03:34:54;109325.25;;;18.16;91.06
48555;BME280;34336;48.270;16.716;2023-05-14T03:37:22;109325.25;;;18.16;90.63
48555;BME280;34336;48.270;16.716;2023-05-14T03:39:48;109325.25;;;18.16;89.91
48555;BME280;34336;48.270;16.716;2023-05-14T03:42:15;109325.25;;;18.16;89.40
48555;BME280;34336;48.270;16.716;2023-05-14T03:44:42;109325.25;;;18.16;89.40
48555;BME280;34336;48.270;16.716;2023-05-14T03:47:08;109325.25;;;18.16;89.88
48555;BME280;34336;48.270;16.716;2023-05-14T03:49:35;109325.25;;;18.16;89.92
48555;BME280;34336;48.270;16.716;2023-05-14T03:52:02;109325.25;;;18.16;90.05
48555;BME280;34336;48.270;16.716;2023-05-14T03:54:29;109325.25;;;18.16;90.63
48555;BME280;34336;48.270;16.716;2023-05-14T03:56:56;109325.25;;;18.16;90.79
48555;BME280;34336;48.270;16.716;2023-05-14T03:59:22;109325.25;;;18.16;90.97
48555;BME280;34336;48.270;16.716;2023-05-14T04:01:49;109325.25;;;18.16;91.36
48555;BME280;34336;48.270;16.716;2023-05-14T04:04:15;109325.25;;;18.16;92.06
48555;BME280;34336;48.270;16.716;2023-05-14T04:06:42;109325.25;;;18.16;92.19
48555;BME280;34336;48.270;16.716;2023-05-14T04:09:09;109325.25;;;18.16;92.48
48555;BME280;34336;48.270;16.716;2023-05-14T04:11:36;109325.25;;;18.16;92.75
48555;BME280;34336;48.270;16.716;2023-05-14T04:14:02;109325.25;;;18.16;92.96
48555;BME280;34336;48.270;16.716;2023-05-14T04:16:30;109325.25;;;18.16;93.06
48555;BME280;34336;48.270;16.716;2023-05-14T04:18:56;109325.25;;;18.16;93.36
48555;BME280;34336;48.270;16.716;2023-05-14T04:21:23;109325.25;;;18.16;93.50
48555;BME280;34336;48.270;16.716;2023-05-14T04:23:50;109325.25;;;18.16;92.93
48555;BME280;34336;48.270;16.716;2023-05-14T04:26:16;109325.25;;;18.16;93.07
48555;BME280;34336;48.270;16.716;2023-05-14T04:28:43;109325.25;;;18.16;92.70
48555;BME280;34336;48.270;16.716;2023-05-14T04:31:10;109325.25;;;18.16;91.95
48555;BME280;34336;48.270;16.716;2023-05-14T04:33:37;109325.25;;;18.16;91.77
48555;BME280;34336;48.270;16.716;2023-05-14T04:36:04;109325.25;;;18.16;90.37
48555;BME280;34336;48.270;16.716;2023-05-14T04:38:31;109325.25;;;18.16;90.63
48555;BME280;34336;48.270;16.716;2023-05-14T04:40:57;109325.25;;;18.16;90.98
48555;BME280;34336;48.270;16.716;2023-05-14T04:43:24;109325.25;;;18.16;91.53
48555;BME280;34336;48.270;16.716;2023-05-14T04:45:50;109325.25;;;18.16;91.35
48555;BME280;34336;48.270;16.716;2023-05-14T04:48:17;109325.25;;;18.16;91.21
48555;BME280;34336;48.270;16.716;2023-05-14T04:50:44;109325.25;;;18.16;90.87
48555;BME280;34336;48.270;16.716;2023-05-14T04:53:11;109325.25;;;18.16;90.83
48555;BME280;34336;48.270;16.716;2023-05-14T04:55:37;109325.25;;;18.16;89.87
48555;BME280;34336;48.270;16.716;2023-05-14T04:58:04;109325.25;;;18.16;90.18
48555;BME280;34336;48.270;16.716;2023-05-14T05:00:30;109325.25;;;18.16;90.53
48555;BME280;34336;48.270;16.716;2023-05-14T05:02:58;109325.25;;;18.16;90.90
48555;BME280;34336;48.270;16.716;2023-05-14T05:05:25;109325.25;;;18.16;90.95
48555;BME280;34336;48.270;16.716;2023-05-14T05:07:52;109325.25;;;18.16;91.49
48555;BME280;34336;48.270;16.716;2023-05-14T05:10:19;109325.25;;;18.16;92.12
48555;BME280;34336;48.270;16.716;2023-05-14T05:12:45;109325.25;;;18.16;92.43
48555;BME280;34336;48.270;16.716;2023-05-14T05:15:12;109325.25;;;18.16;92.72
48555;BME280;34336;48.270;16.716;2023-05-14T05:17:38;109325.25;;;18.16;93.21
48555;BME280;34336;48.270;16.716;2023-05-14T05:20:05;109325.25;;;18.16;94.03
48555;BME280;34336;48.270;16.716;2023-05-14T05:22:35;109325.25;;;18.16;94.05
48555;BME280;34336;48.270;16.716;2023-05-14T05:25:02;109325.25;;;18.16;94.61
48555;BME280;34336;48.270;16.716;2023-05-14T05:27:31;109325.25;;;18.16;95.36
48555;BME280;34336;48.270;16.716;2023-05-14T05:30:01;109325.25;;;18.16;96.02
48555;BME280;34336;48.270;16.716;2023-05-14T05:32:29;109325.25;;;18.16;96.18
48555;BME280;34336;48.270;16.716;2023-05-14T05:34:56;109325.25;;;18.16;95.34
48555;BME280;34336;48.270;16.716;2023-05-14T05:37:23;109325.25;;;18.16;92.89
48555;BME280;34336;48.270;16.716;2023-05-14T05:39:50;109325.25;;;18.16;91.88
48555;BME280;34336;48.270;16.716;2023-05-14T05:42:16;109325.25;;;18.16;91.46
48555;BME280;34336;48.270;16.716;2023-05-14T05:44:43;109325.25;;;18.16;91.21
48555;BME280;34336;48.270;16.716;2023-05-14T05:47:09;109325.25;;;18.16;90.24
48555;BME280;34336;48.270;16.716;2023-05-14T05:49:36;109325.25;;;18.16;89.02
48555;BME280;34336;48.270;16.716;2023-05-14T05:52:03;109325.25;;;18.16;88.46
48555;BME280;34336;48.270;16.716;2023-05-14T05:54:29;109325.25;;;18.16;87.51
48555;BME280;34336;48.270;16.716;2023-05-14T05:56:58;109325.25;;;18.16;87.24
48555;BME280;34336;48.270;16.716;2023-05-14T05:59:24;109325.25;;;18.16;86.66
48555;BME280;34336;48.270;16.716;2023-05-14T06:01:51;109325.25;;;18.16;86.19
48555;BME280;34336;48.270;16.716;2023-05-14T06:04:18;109325.25;;;18.16;86.17
48555;BME280;34336;48.270;16.716;2023-05-14T06:06:45;109325.25;;;18.16;87.76
48555;BME280;34336;48.270;16.716;2023-05-14T06:09:12;109325.25;;;18.16;86.62
48555;BME280;34336;48.270;16.716;2023-05-14T06:11:38;109325.25;;;18.16;86.62
48555;BME280;34336;48.270;16.716;2023-05-14T06:14:05;109325.25;;;18.16;88.02
48555;BME280;34336;48.270;16.716;2023-05-14T06:16:32;109325.25;;;18.16;88.57
48555;BME280;34336;48.270;16.716;2023-05-14T06:18:58;109325.25;;;18.16;88.86
48555;BME280;34336;48.270;16.716;2023-05-14T06:21:25;109325.25;;;18.16;88.59
48555;BME280;34336;48.270;16.716;2023-05-14T06:23:52;109325.25;;;18.16;88.68
48555;BME280;34336;48.270;16.716;2023-05-14T06:26:18;109325.25;;;18.16;90.24
48555;BME280;34336;48.270;16.716;2023-05-14T06:28:45;109325.25;;;18.16;90.56
48555;BME280;34336;48.270;16.716;2023-05-14T06:31:11;109325.25;;;18.16;90.82
48555;BME280;34336;48.270;16.716;2023-05-14T06:33:39;109325.25;;;18.16;90.97
48555;BME280;34336;48.270;16.716;2023-05-14T06:36:06;109325.25;;;18.16;91.44
48555;BME280;34336;48.270;16.716;2023-05-14T06:38:33;109325.25;;;18.16;91.71
48555;BME280;34336;48.270;16.716;2023-05-14T06:40:59;109325.25;;;18.16;91.69
48555;BME280;34336;48.270;16.716;2023-05-14T06:43:26;109325.25;;;18.16;92.48
48555;BME280;34336;48.270;16.716;2023-05-14T06:45:53;109325.25;;;18.16;92.50
48555;BME280;34336;48.270;16.716;2023-05-14T06:48:20;109325.25;;;18.16;92.69
48555;BME280;34336;48.270;16.716;2023-05-14T06:50:47;109325.25;;;18.16;92.98
48555;BME280;34336;48.270;16.716;2023-05-14T06:53:14;109325.25;;;18.16;93.98
48555;BME280;34336;48.270;16.716;2023-05-14T06:55:40;109325.25;;;18.16;94.65
48555;BME280;34336;48.270;16.716;2023-05-14T06:58:07;109325.25;;;18.16;95.75
48555;BME280;34336;48.270;16.716;2023-05-14T07:00:34;109325.25;;;18.16;95.49
48555;BME280;34336;48.270;16.716;2023-05-14T07:03:00;109325.25;;;18.16;96.65
48555;BME280;34336;48.270;16.716;2023-05-14T07:05:27;109325.25;;;18.16;97.38
48555;BME280;34336;48.270;16.716;2023-05-14T07:07:54;109325.25;;;18.16;98.46
48555;BME280;34336;48.270;16.716;2023-05-14T07:10:21;109325.25;;;18.16;97.17
48555;BME280;34336;48.270;16.716;2023-05-14T07:12:48;109325.25;;;18.16;96.98
48555;BME280;34336;48.270;16.716;2023-05-14T07:15:15;109325.25;;;18.16;98.29
48555;BME280;34336;48.270;16.716;2023-05-14T07:17:42;109325.25;;;18.16;98.23
48555;BME280;34336;48.270;16.716;2023-05-14T07:20:08;109325.25;;;18.16;99.21
48555;BME280;34336;48.270;16.716;2023-05-14T07:22:35;109325.25;;;18.16;99.49
48555;BME280;34336;48.270;16.716;2023-05-14T07:25:02;109325.25;;;18.16;98.25
48555;BME280;34336;48.270;16.716;2023-05-14T07:27:28;109325.25;;;18.16;97.99
48555;BME280;34336;48.270;16.716;2023-05-14T07:29:55;109325.25;;;18.16;98.18
48555;BME280;34336;48.270;16.716;2023-05-14T07:32:22;109325.25;;;18.16;98.61
48555;BME280;34336;48.270;16.716;2023-05-14T07:34:50;109325.25;;;18.16;99.17
48555;BME280;34336;48.270;16.716;2023-05-14T07:37:17;109325.25;;;18.16;98.63
48555;BME280;34336;48.270;16.716;2023-05-14T07:39:44;109325.25;;;18.16;98.70
48555;BME280;34336;48.270;16.716;2023-05-14T07:42:10;109325.25;;;18.16;99.61
48555;BME280;34336;48.270;16.716;2023-05-14T07:44:50;109325.25;;;18.16;98.72
48555;BME280;34336;48.270;16.716;2023-05-14T07:47:17;109325.25;;;18.16;98.59
48555;BME280;34336;48.270;16.716;2023-05-14T07:49:43;109325.25;;;18.16;99.25
48555;BME280;34336;48.270;16.716;2023-05-14T07:52:10;109325.25;;;18.16;100.00
48555;BME280;34336;48.270;16.716;2023-05-14T07:54:37;109325.25;;;18.16;100.00
48555;BME280;34336;48.270;16.716;2023-05-14T07:57:04;109325.25;;;18.16;100.00
48555;BME280;34336;48.270;16.716;2023-05-14T07:59:30;109325.25;;;18.16;100.00
48555;BME280;34336;48.270;16.716;2023-05-14T08:01:57;109325.25;;;18.16;100.00
48555;BME280;34336;48.270;16.716;2023-05-14T08:04:24;109325.25;;;18.16;100.00
48555;BME280;34336;48.270;16.716;2023-05-14T08:06:51;109325.25;;;18.16;100.00
48555;BME280;34336;48.270;16.716;2023-05-14T08:09:18;109325.25;;;18.16;99.97
48555;BME280;34336;48.270;16.716;2023-05-14T08:11:44;109325.25;;;18.16;100.00
48555;BME280;34336;48.270;16.716;2023-05-14T08:14:11;109325.25;;;18.16;99.88
48555;BME280;34336;48.270;16.716;2023-05-14T08:16:38;109325.25;;;18.16;99.06
48555;BME280;34336;48.270;16.716;2023-05-14T08:19:04;109325.25;;;18.16;98.20
48555;BME280;34336;48.270;16.716;2023-05-14T08:21:31;109325.25;;;18.16;98.11
48555;BME280;34336;48.270;16.716;2023-05-14T08:23:58;109325.25;;;18.16;97.26
48555;BME280;34336;48.270;16.716;2023-05-14T08:26:24;109325.25;;;18.16;98.26
48555;BME280;34336;48.270;16.716;2023-05-14T08:28:52;109325.25;;;18.16;99.85
48555;BME280;34336;48.270;16.716;2023-05-14T08:31:19;109325.25;;;18.16;100.00
48555;BME280;34336;48.270;16.716;2023-05-14T08:33:45;109325.25;;;18.16;100.00
48555;BME280;34336;48.270;16.716;2023-05-14T08:36:12;109325.25;;;18.16;100.00
48555;BME280;34336;48.270;16.716;2023-05-14T08:38:39;109325.25;;;18.16;100.00
48555;BME280;34336;48.270;16.716;2023-05-14T08:41:06;109325.25;;;18.16;100.00
48555;BME280;34336;48.270;16.716;2023-05-14T08:44:17;109325.25;;;18.16;100.00
48555;BME280;34336;48.270;16.716;2023-05-14T08:46:23;109325.25;;;18.16;100.00
48555;BME280;34336;48.270;16.716;2023-05-14T08:48:52;109325.25;;;18.16;100.00
48555;BME280;34336;48.270;16.716;2023-05-14T08:51:21;109325.25;;;18.16;100.00
48555;BME280;34336;48.270;16.716;2023-05-14T08:53:48;109325.25;;;18.16;100.00
48555;BME280;34336;48.270;16.716;2023-05-14T08:56:15;109325.25;;;18.16;100.00
48555;BME280;34336;48.270;16.716;2023-05-14T08:58:43;109325.25;;;18.16;100.00
48555;BME280;34336;48.270;16.716;2023-05-14T09:01:10;109325.25;;;18.16;100.00
48555;BME280;34336;48.270;16.716;2023-05-14T09:03:36;109325.25;;;18.16;100.00
48555;BME280;34336;48.270;16.716;2023-05-14T09:06:04;109325.25;;;18.16;100.00
48555;BME280;34336;48.270;16.716;2023-05-14T09:08:31;109325.25;;;18.16;100.00
48555;BME280;34336;48.270;16.716;2023-05-14T09:10:58;109325.25;;;18.16;100.00
48555;BME280;34336;48.270;16.716;2023-05-14T09:13:25;109325.25;;;18.16;100.00
48555;BME280;34336;48.270;16.716;2023-05-14T09:15:53;109325.25;;;18.16;100.00
48555;BME280;34336;48.270;16.716;2023-05-14T09:18:20;109325.25;;;18.16;100.00
48555;BME280;34336;48.270;16.716;2023-05-14T09:20:47;109325.25;;;18.16;100.00
48555;BME280;34336;48.270;16.716;2023-05-14T09:23:14;109325.25;;;18.16;100.00
48555;BME280;34336;48.270;16.716;2023-05-14T09:25:41;109325.25;;;18.16;100.00
48555;BME280;34336;48.270;16.716;2023-05-14T09:28:07;109325.25;;;18.16;100.00
48555;BME280;34336;48.270;16.716;2023-05-14T09:30:34;109325.25;;;18.16;100.00
48555;BME280;34336;48.270;16.716;2023-05-14T09:33:02;109325.25;;;18.16;100.00
48555;BME280;34336;48.270;16.716;2023-05-14T09:35:30;109325.25;;;18.16;100.00
48555;BME280;34336;48.270;16.716;2023-05-14T09:37:57;109325.25;;;18.16;100.00
48555;BME280;34336;48.270;16.716;2023-05-14T09:40:24;109325.25;;;18.16;100.00
48555;BME280;34336;48.270;16.716;2023-05-14T09:42:51;109325.25;;;18.16;100.00
48555;BME280;34336;48.270;16.716;2023-05-14T09:45:17;109325.25;;;18.16;100.00
48555;BME280;34336;48.270;16.716;2023-05-14T09:47:44;109325.25;;;18.16;100.00
48555;BME280;34336;48.270;16.716;2023-05-14T09:50:11;109325.25;;;18.16;100.00
48555;BME280;34336;48.270;16.716;2023-05-14T09:52:38;109325.25;;;18.16;99.61
48555;BME280;34336;48.270;16.716;2023-05-14T09:55:05;109325.25;;;18.16;100.00
48555;BME280;34336;48.270;16.716;2023-05-14T09:57:31;109325.25;;;18.16;100.00
48555;BME280;34336;48.270;16.716;2023-05-14T09:59:58;109325.25;;;18.16;100.00
48555;BME280;34336;48.270;16.716;2023-05-14T10:02:26;109325.25;;;18.16;100.00
48555;BME280;34336;48.270;16.716;2023-05-14T10:04:55;109325.25;;;18.16;100.00
48555;BME280;34336;48.270;16.716;2023-05-14T10:07:26;109325.25;;;18.16;100.00
48555;BME280;34336;48.270;16.716;2023-05-14T10:09:53;109325.25;;;18.16;100.00
48555;BME280;34336;48.270;16.716;2023-05-14T10:12:24;109325.25;;;18.16;99.67
48555;BME280;34336;48.270;16.716;2023-05-14T10:14:54;109325.25;;;18.16;98.55
48555;BME280;34336;48.270;16.716;2023-05-14T10:17:23;109325.25;;;18.16;99.05
48555;BME280;34336;48.270;16.716;2023-05-14T10:19:52;109325.25;;;18.16;100.00
48555;BME280;34336;48.270;16.716;2023-05-14T10:22:21;109325.25;;;18.16;99.82
48555;BME280;34336;48.270;16.716;2023-05-14T10:24:48;109325.25;;;18.16;98.27
48555;BME280;34336;48.270;16.716;2023-05-14T10:27:20;109325.25;;;18.16;99.53
48555;BME280;34336;48.270;16.716;2023-05-14T10:29:51;109325.25;;;18.16;98.21
48555;BME280;34336;48.270;16.716;2023-05-14T10:32:20;109325.25;;;18.16;97.39
48555;BME280;34336;48.270;16.716;2023-05-14T10:34:48;109325.25;;;18.16;98.47
48555;BME280;34336;48.270;16.716;2023-05-14T10:37:15;109325.25;;;18.16;97.37
48555;BME280;34336;48.270;16.716;2023-05-14T10:42:12;109325.25;;;18.16;96.29
48555;BME280;34336;48.270;16.716;2023-05-14T10:44:41;109325.25;;;18.16;95.30
48555;BME280;34336;48.270;16.716;2023-05-14T10:47:11;109325.25;;;18.16;95.62
48555;BME280;34336;48.270;16.716;2023-05-14T10:49:38;109325.25;;;18.16;98.60
48555;BME280;34336;48.270;16.716;2023-05-14T10:52:09;109325.25;;;18.16;100.00
48555;BME280;34336;48.270;16.716;2023-05-14T10:54:37;109325.25;;;18.16;98.58
48555;BME280;34336;48.270;16.716;2023-05-14T10:57:08;109325.25;;;18.16;99.19
48555;BME280;34336;48.270;16.716;2023-05-14T10:59:36;109325.25;;;18.16;98.00
48555;BME280;34336;48.270;16.716;2023-05-14T11:02:07;109325.25;;;18.16;98.50
48555;BME280;34336;48.270;16.716;2023-05-14T11:04:50;109325.25;;;18.16;98.21
48555;BME280;34336;48.270;16.716;2023-05-14T11:07:18;109325.25;;;18.16;95.44
48555;BME280;34336;48.270;16.716;2023-05-14T11:09:49;109325.25;;;18.16;97.03
48555;BME280;34336;48.270;16.716;2023-05-14T11:12:16;109325.25;;;18.16;97.29
48555;BME280;34336;48.270;16.716;2023-05-14T11:14:43;109325.25;;;18.16;95.45
48555;BME280;34336;48.270;16.716;2023-05-14T11:17:10;109325.25;;;18.16;96.27
48555;BME280;34336;48.270;16.716;2023-05-14T11:19:37;109325.25;;;18.16;95.83
48555;BME280;34336;48.270;16.716;2023-05-14T11:22:04;109325.25;;;18.16;97.55
48555;BME280;34336;48.270;16.716;2023-05-14T11:24:30;109325.25;;;18.16;98.32
48555;BME280;34336;48.270;16.716;2023-05-14T11:26:57;109325.25;;;18.16;97.16
48555;BME280;34336;48.270;16.716;2023-05-14T11:29:24;109325.25;;;18.16;98.69
48555;BME280;34336;48.270;16.716;2023-05-14T11:31:51;109325.25;;;18.16;98.89
48555;BME280;34336;48.270;16.716;2023-05-14T11:34:17;109325.25;;;18.16;98.87
48555;BME280;34336;48.270;16.716;2023-05-14T11:36:44;109325.25;;;18.16;100.00
48555;BME280;34336;48.270;16.716;2023-05-14T11:39:16;109325.25;;;18.16;100.00
48555;BME280;34336;48.270;16.716;2023-05-14T11:41:43;109325.25;;;18.16;100.00
48555;BME280;34336;48.270;16.716;2023-05-14T11:44:10;109325.25;;;18.16;99.37
48555;BME280;34336;48.270;16.716;2023-05-14T11:46:37;109325.25;;;18.16;99.12
48555;BME280;34336;48.270;16.716;2023-05-14T11:49:03;109325.25;;;18.16;97.00
48555;BME280;34336;48.270;16.716;2023-05-14T11:51:30;109325.25;;;18.16;97.51
48555;BME280;34336;48.270;16.716;2023-05-14T11:53:57;109325.25;;;18.16;98.16
48555;BME280;34336;48.270;16.716;2023-05-14T11:56:26;109325.25;;;18.16;98.94
48555;BME280;34336;48.270;16.716;2023-05-14T11:58:56;109325.25;;;18.16;98.42
48555;BME280;34336;48.270;16.716;2023-05-14T12:01:23;109325.25;;;18.16;98.52
48555;BME280;34336;48.270;16.716;2023-05-14T12:03:50;109325.25;;;18.16;99.42
48555;BME280;34336;48.270;16.716;2023-05-14T12:06:17;109325.25;;;18.16;100.00
48555;BME280;34336;48.270;16.716;2023-05-14T12:08:46;109325.25;;;18.16;99.57
48555;BME280;34336;48.270;16.716;2023-05-14T12:11:13;109325.25;;;18.16;99.48
48555;BME280;34336;48.270;16.716;2023-05-14T12:13:39;109325.25;;;18.16;100.00
48555;BME280;34336;48.270;16.716;2023-05-14T12:16:06;109325.25;;;18.16;98.41
48555;BME280;34336;48.270;16.716;2023-05-14T12:18:33;109325.25;;;18.16;98.63
48555;BME280;34336;48.270;16.716;2023-05-14T12:21:02;109325.25;;;18.16;97.33
48555;BME280;34336;48.270;16.716;2023-05-14T12:23:29;109325.25;;;18.16;98.75
48555;BME280;34336;48.270;16.716;2023-05-14T12:26:03;109325.25;;;18.16;98.53
48555;BME280;34336;48.270;16.716;2023-05-14T12:28:32;109325.25;;;18.16;99.40
48555;BME280;34336;48.270;16.716;2023-05-14T12:31:02;109325.25;;;18.16;98.86
48555;BME280;34336;48.270;16.716;2023-05-14T12:33:28;109325.25;;;18.16;100.00
48555;BME280;34336;48.270;16.716;2023-05-14T12:35:55;109325.25;;;18.16;99.59
48555;BME280;34336;48.270;16.716;2023-05-14T12:38:46;109325.25;;;18.16;99.95